createdAt,value
2022-12-19T00:00:39.110Z,91.65
2022-12-19T00:03:07.399Z,91.21
2022-12-19T00:05:39.033Z,91.29
2022-12-19T00:08:16.960Z,91.19
2022-12-19T00:10:46.389Z,91.71
2022-12-19T00:13:16.613Z,92.31
2022-12-19T00:15:44.928Z,91.80
2022-12-19T00:18:13.330Z,91.64
2022-12-19T00:20:42.564Z,91.70
2022-12-19T00:23:12.380Z,91.50
2022-12-19T00:25:40.651Z,91.59
2022-12-19T00:28:10.252Z,91.86
2022-12-19T00:30:38.509Z,91.58
2022-12-19T00:33:07.349Z,90.82
2022-12-19T00:35:35.620Z,91.47
2022-12-19T00:38:20.982Z,91.90
2022-12-19T00:40:50.511Z,91.90
2022-12-19T00:43:18.638Z,91.57
2022-12-19T00:45:46.945Z,91.64
2022-12-19T00:48:17.949Z,91.86
2022-12-19T00:50:48.229Z,92.15
2022-12-19T00:53:16.388Z,92.22
2022-12-19T00:55:44.562Z,91.94
2022-12-19T00:58:14.235Z,91.60
2022-12-19T01:00:49.863Z,92.12
2022-12-19T01:03:18.164Z,92.56
2022-12-19T01:05:46.392Z,91.82
2022-12-19T01:08:15.164Z,91.32
2022-12-19T01:10:47.135Z,92.04
2022-12-19T01:13:17.363Z,91.76
2022-12-19T01:15:45.476Z,91.29
2022-12-19T01:18:13.911Z,91.62
2022-12-19T01:20:43.727Z,90.81
2022-12-19T01:23:12.892Z,91.03
2022-12-19T01:25:43.133Z,91.46
2022-12-19T01:28:17.000Z,91.34
2022-12-19T01:30:46.841Z,91.01
2022-12-19T01:33:17.376Z,90.63
2022-12-19T01:35:47.312Z,90.85
2022-12-19T01:38:16.708Z,91.46
2022-12-19T01:40:51.156Z,91.44
2022-12-19T01:43:20.729Z,90.46
2022-12-19T01:45:49.970Z,91.04
2022-12-19T01:48:20.592Z,90.65
2022-12-19T01:51:01.651Z,90.73
2022-12-19T01:53:35.511Z,90.54
2022-12-19T01:56:12.231Z,90.69
2022-12-19T01:58:46.651Z,90.92
2022-12-19T02:01:15.574Z,90.94
2022-12-19T02:03:44.047Z,91.02
2022-12-19T02:06:13.477Z,91.15
2022-12-19T02:08:42.839Z,91.62
2022-12-19T02:11:11.142Z,92.24
2022-12-19T02:13:43.517Z,91.92
2022-12-19T02:16:21.396Z,92.96
2022-12-19T02:18:58.948Z,94.94
2022-12-19T02:21:32.886Z,95.74
2022-12-19T02:24:41.605Z,96.11
2022-12-19T02:27:42.240Z,95.94
2022-12-19T02:30:14.975Z,95.59
2022-12-19T02:32:50.116Z,94.75
2022-12-19T02:35:27.830Z,94.83
2022-12-19T02:38:02.418Z,95.07
2022-12-19T02:40:35.803Z,94.91
2022-12-19T02:43:04.563Z,94.62
2022-12-19T02:45:37.040Z,95.06
2022-12-19T02:48:09.160Z,95.02
2022-12-19T02:50:39.524Z,95.28
2022-12-19T02:53:08.314Z,95.61
2022-12-19T02:55:43.550Z,96.04
2022-12-19T02:58:34.917Z,96.16
2022-12-19T03:01:10.519Z,96.75
2022-12-19T03:03:48.393Z,97.27
2022-12-19T03:06:22.452Z,97.13
2022-12-19T03:08:56.727Z,96.95
2022-12-19T03:11:25.883Z,96.71
2022-12-19T03:13:57.154Z,97.05
2022-12-19T03:16:26.521Z,97.41
2022-12-19T03:18:56.555Z,97.88
2022-12-19T03:21:28.880Z,97.60
2022-12-19T03:23:57.810Z,97.22
2022-12-19T03:26:29.932Z,97.04
2022-12-19T03:29:02.455Z,97.43
2022-12-19T03:31:32.678Z,96.67
2022-12-19T03:34:04.418Z,96.78
2022-12-19T03:36:35.326Z,95.71
2022-12-19T03:39:04.707Z,95.85
2022-12-19T03:41:50.393Z,95.59
2022-12-19T03:44:19.274Z,95.57
2022-12-19T03:46:53.661Z,95.78
2022-12-19T03:49:23.296Z,95.28
2022-12-19T03:51:59.338Z,94.75
2022-12-19T03:54:30.474Z,95.41
2022-12-19T03:57:04.603Z,95.19
2022-12-19T03:59:36.182Z,95.55
2022-12-19T04:02:05.664Z,96.06
2022-12-19T04:04:36.415Z,95.72
2022-12-19T04:07:05.398Z,94.68
2022-12-19T04:09:34.567Z,94.24
2022-12-19T04:12:05.031Z,94.49
2022-12-19T04:14:35.986Z,94.83
2022-12-19T04:17:12.771Z,94.48
2022-12-19T04:19:46.547Z,94.65
2022-12-19T04:22:20.079Z,94.38
2022-12-19T04:24:49.275Z,94.70
2022-12-19T04:27:18.607Z,94.13
2022-12-19T04:29:47.500Z,94.62
2022-12-19T04:32:16.279Z,94.72
2022-12-19T04:34:45.906Z,94.73
2022-12-19T04:37:14.139Z,95.03
2022-12-19T04:39:42.435Z,94.59
2022-12-19T04:42:10.690Z,94.36
2022-12-19T04:44:39.051Z,94.06
2022-12-19T04:47:07.409Z,93.29
2022-12-19T04:49:35.743Z,93.62
2022-12-19T04:52:05.522Z,94.16
2022-12-19T04:54:36.385Z,94.69
2022-12-19T04:57:04.684Z,94.96
2022-12-19T04:59:33.569Z,94.96
2022-12-19T05:02:02.142Z,94.59
2022-12-19T05:04:30.411Z,94.72
2022-12-19T05:06:58.761Z,94.49
2022-12-19T05:09:28.596Z,94.81
2022-12-19T05:11:56.859Z,95.25
2022-12-19T05:14:25.120Z,95.22
2022-12-19T05:16:58.863Z,95.35
2022-12-19T05:19:29.282Z,94.89
2022-12-19T05:21:57.619Z,94.78
2022-12-19T05:24:25.750Z,94.84
2022-12-19T05:26:55.427Z,94.64
2022-12-19T05:29:23.988Z,94.71
2022-12-19T05:31:53.113Z,95.44
2022-12-19T05:34:21.441Z,94.93
2022-12-19T05:36:49.711Z,94.55
2022-12-19T05:39:18.129Z,94.51
2022-12-19T05:41:48.926Z,94.75
2022-12-19T05:44:19.081Z,94.95
2022-12-19T05:46:47.431Z,94.72
2022-12-19T05:49:15.765Z,95.24
2022-12-19T05:51:44.239Z,95.37
2022-12-19T05:54:12.522Z,94.95
2022-12-19T05:56:40.776Z,94.28
2022-12-19T05:59:09.073Z,94.63
2022-12-19T06:01:39.550Z,94.52
2022-12-19T06:04:09.091Z,94.93
2022-12-19T06:06:37.662Z,94.19
2022-12-19T06:09:05.949Z,93.52
2022-12-19T06:11:34.223Z,93.85
2022-12-19T06:14:02.440Z,93.93
2022-12-19T06:16:30.768Z,94.19
2022-12-19T06:19:00.494Z,93.97
2022-12-19T06:21:28.760Z,94.50
2022-12-19T06:23:57.038Z,94.20
2022-12-19T06:26:25.347Z,94.65
2022-12-19T06:28:54.314Z,94.21
2022-12-19T06:31:24.170Z,93.96
2022-12-19T06:33:53.345Z,94.18
2022-12-19T06:36:25.507Z,93.57
2022-12-19T06:38:54.568Z,93.20
2022-12-19T06:41:40.375Z,93.66
2022-12-19T06:44:12.212Z,94.27
2022-12-19T06:46:41.161Z,94.16
2022-12-19T06:49:10.968Z,93.46
2022-12-19T06:51:40.636Z,93.14
2022-12-19T06:54:08.924Z,93.44
2022-12-19T06:56:37.787Z,93.83
2022-12-19T06:59:06.113Z,93.98
2022-12-19T07:01:45.335Z,93.91
2022-12-19T07:04:17.649Z,92.96
2022-12-19T07:06:49.364Z,92.43
2022-12-19T07:09:18.559Z,92.85
2022-12-19T07:11:46.789Z,92.58
2022-12-19T07:14:15.241Z,92.83
2022-12-19T07:16:43.750Z,93.46
2022-12-19T07:19:12.183Z,92.64
2022-12-19T07:21:40.550Z,93.27
2022-12-19T07:24:11.460Z,93.83
2022-12-19T07:26:39.856Z,92.43
2022-12-19T07:29:08.323Z,92.24
2022-12-19T07:31:36.920Z,92.65
2022-12-19T07:34:05.227Z,92.21
2022-12-19T07:36:36.481Z,92.42
2022-12-19T07:39:05.843Z,92.36
2022-12-19T07:41:38.157Z,91.95
2022-12-19T07:44:07.142Z,90.54
2022-12-19T07:46:35.399Z,90.61
2022-12-19T07:49:03.595Z,90.75
2022-12-19T07:51:31.924Z,89.86
2022-12-19T07:54:00.120Z,91.20
2022-12-19T07:56:28.817Z,90.99
2022-12-19T07:58:58.650Z,90.51
2022-12-19T08:01:28.552Z,90.03
2022-12-19T08:03:58.415Z,90.49
2022-12-19T08:06:27.985Z,91.01
2022-12-19T08:08:56.463Z,91.79
2022-12-19T08:11:29.582Z,91.45
2022-12-19T08:13:59.716Z,91.30
2022-12-19T08:16:29.142Z,91.00
2022-12-19T08:18:57.574Z,90.59
2022-12-19T08:21:26.429Z,91.27
2022-12-19T08:23:54.893Z,90.85
2022-12-19T08:26:26.118Z,90.88
2022-12-19T08:28:55.462Z,90.62
2022-12-19T08:31:26.859Z,90.50
2022-12-19T08:33:56.187Z,90.83
2022-12-19T08:36:24.851Z,90.62
2022-12-19T08:38:53.665Z,90.66
2022-12-19T08:41:22.082Z,91.00
2022-12-19T08:43:52.299Z,91.19
2022-12-19T08:46:21.678Z,90.71
2022-12-19T08:48:51.387Z,91.15
2022-12-19T08:51:20.026Z,91.22
2022-12-19T08:53:51.359Z,91.05
2022-12-19T08:56:21.819Z,92.20
2022-12-19T08:58:50.128Z,91.38
2022-12-19T09:01:20.255Z,92.62
2022-12-19T09:03:56.608Z,91.59
2022-12-19T09:06:38.757Z,92.25
2022-12-19T09:09:07.227Z,91.74
2022-12-19T09:11:36.253Z,90.90
2022-12-19T09:14:21.230Z,91.58
2022-12-19T09:16:50.033Z,91.33
2022-12-19T09:19:18.468Z,91.81
2022-12-19T09:21:48.177Z,91.51
2022-12-19T09:24:16.388Z,92.28
2022-12-19T09:26:45.968Z,92.60
2022-12-19T09:29:20.940Z,91.77
2022-12-19T09:31:56.378Z,91.67
2022-12-19T09:34:29.974Z,91.06
2022-12-19T09:37:07.924Z,91.37
2022-12-19T09:39:38.627Z,92.36
2022-12-19T09:42:19.865Z,91.46
2022-12-19T09:45:17.313Z,91.90
2022-12-19T09:47:57.832Z,92.17
2022-12-19T09:50:33.511Z,92.41
2022-12-19T09:53:07.251Z,92.58
2022-12-19T09:55:36.910Z,92.31
2022-12-19T09:58:09.678Z,92.79
2022-12-19T10:00:40.907Z,92.69
2022-12-19T10:03:16.399Z,93.31
2022-12-19T10:07:15.825Z,93.01
2022-12-19T10:09:17.077Z,93.30
2022-12-19T10:12:40.779Z,92.86
2022-12-19T10:14:34.803Z,93.78
2022-12-19T10:17:24.139Z,93.29
2022-12-19T10:20:15.339Z,93.41
2022-12-19T10:22:50.628Z,92.99
2022-12-19T10:25:30.683Z,94.26
2022-12-19T10:28:02.273Z,93.96
2022-12-19T10:30:32.370Z,94.33
2022-12-19T10:33:07.337Z,92.68
2022-12-19T10:35:44.389Z,92.76
2022-12-19T10:38:23.191Z,92.97
2022-12-19T10:40:57.035Z,93.44
2022-12-19T10:43:35.588Z,93.22
2022-12-19T10:46:15.360Z,93.37
2022-12-19T10:48:43.883Z,93.41
2022-12-19T10:51:14.256Z,93.03
2022-12-19T10:53:42.555Z,92.80
2022-12-19T10:56:25.290Z,93.24
2022-12-19T10:58:58.857Z,93.37
2022-12-19T11:01:29.950Z,92.56
2022-12-19T11:04:16.031Z,92.41
2022-12-19T11:06:52.521Z,92.83
2022-12-19T11:09:23.590Z,92.40
2022-12-19T11:14:31.495Z,93.33
2022-12-19T11:20:42.064Z,93.90
2022-12-19T11:26:12.381Z,93.26
2022-12-19T11:29:46.979Z,93.94
2022-12-19T11:30:06.172Z,94.31
2022-12-19T11:30:39.084Z,94.12
2022-12-19T11:30:47.277Z,93.81
2022-12-19T11:32:34.025Z,93.23
2022-12-19T11:34:36.897Z,92.76
2022-12-19T11:37:14.822Z,92.44
2022-12-19T11:39:46.734Z,92.82
2022-12-19T11:42:22.640Z,93.40
2022-12-19T11:44:57.172Z,93.49
2022-12-19T11:47:34.144Z,93.66
2022-12-19T11:50:09.190Z,93.53
2022-12-19T11:55:41.126Z,93.93
2022-12-19T11:58:11.580Z,93.61
2022-12-19T12:00:46.770Z,93.49
2022-12-19T12:03:42.099Z,93.94
2022-12-19T12:06:29.537Z,93.31
2022-12-19T12:12:42.656Z,93.61
2022-12-19T12:18:04.931Z,93.72
2022-12-19T12:27:10.049Z,93.25
2022-12-19T12:30:02.857Z,93.15
2022-12-19T12:31:08.671Z,93.59
2022-12-19T12:31:39.389Z,93.74
2022-12-19T12:31:51.871Z,93.67
2022-12-19T12:35:13.513Z,93.84
2022-12-19T12:36:00.037Z,93.59
2022-12-19T12:38:39.483Z,93.39
2022-12-19T12:41:16.476Z,93.69
2022-12-19T12:44:07.934Z,93.49
2022-12-19T12:46:40.344Z,93.29
2022-12-19T12:49:24.461Z,93.57
2022-12-19T12:51:54.251Z,93.79
2022-12-19T12:54:22.939Z,92.93
2022-12-19T12:56:51.312Z,93.19
2022-12-19T12:59:24.858Z,93.07
2022-12-19T13:01:55.493Z,92.87
2022-12-19T13:04:29.605Z,93.07
2022-12-19T13:07:21.121Z,93.64
2022-12-19T13:09:54.565Z,93.67
2022-12-19T13:12:43.683Z,93.90
2022-12-19T13:15:37.196Z,94.04
2022-12-19T13:18:30.557Z,93.87
2022-12-19T13:21:00.046Z,93.91
2022-12-19T13:23:47.447Z,93.62
2022-12-19T13:26:44.773Z,93.35
2022-12-19T13:29:35.999Z,93.13
2022-12-19T13:32:13.210Z,93.01
2022-12-19T13:34:43.779Z,93.82
2022-12-19T13:40:00.096Z,93.16
2022-12-19T13:40:30.788Z,93.00
2022-12-19T13:43:23.937Z,93.88
2022-12-19T13:45:55.304Z,93.39
2022-12-19T13:48:29.850Z,92.82
2022-12-19T13:50:59.467Z,92.66
2022-12-19T13:53:30.680Z,93.09
2022-12-19T13:56:03.824Z,93.24
2022-12-19T13:58:33.854Z,93.27
2022-12-19T14:01:05.873Z,92.99
2022-12-19T14:03:40.224Z,93.40
2022-12-19T14:06:19.692Z,93.02
2022-12-19T14:09:58.714Z,93.03
2022-12-19T14:13:36.226Z,92.59
2022-12-19T14:14:48.718Z,92.56
2022-12-19T14:17:31.868Z,92.61
2022-12-19T14:20:15.530Z,92.96
2022-12-19T14:22:49.272Z,93.18
2022-12-19T14:26:52.219Z,93.00
2022-12-19T14:28:17.341Z,92.80
2022-12-19T14:30:53.297Z,93.81
2022-12-19T14:33:43.820Z,92.96
2022-12-19T14:36:16.297Z,93.43
2022-12-19T14:39:23.276Z,93.47
2022-12-19T14:42:01.831Z,93.21
2022-12-19T14:53:52.316Z,93.93
2022-12-19T14:54:08.373Z,93.07
2022-12-19T14:54:14.803Z,94.09
2022-12-19T14:54:45.180Z,93.41
2022-12-19T14:59:20.393Z,93.58
2022-12-19T15:01:54.943Z,93.59
2022-12-19T15:04:51.345Z,93.48
2022-12-19T15:07:18.640Z,93.33
2022-12-19T15:11:07.819Z,92.67
2022-12-19T15:14:47.748Z,93.52
2022-12-19T15:15:59.326Z,93.85
2022-12-19T15:18:39.568Z,93.77
2022-12-19T15:21:09.694Z,93.41
2022-12-19T15:23:43.019Z,93.64
2022-12-19T15:26:14.776Z,93.74
2022-12-19T15:28:45.072Z,94.09
2022-12-19T15:31:26.523Z,94.01
2022-12-19T15:36:44.608Z,93.71
2022-12-19T15:39:13.652Z,93.98
2022-12-19T15:41:42.409Z,94.25
2022-12-19T15:44:16.823Z,94.17
2022-12-19T15:46:48.979Z,94.14
2022-12-19T15:49:20.635Z,94.50
2022-12-19T15:51:49.508Z,94.42
2022-12-19T15:57:07.567Z,94.13
2022-12-19T15:59:38.874Z,94.16
2022-12-19T16:02:17.413Z,93.53
2022-12-19T16:04:48.407Z,93.49
2022-12-19T16:07:18.913Z,94.37
2022-12-19T16:09:47.669Z,93.53
2022-12-19T16:12:17.218Z,94.23
2022-12-19T16:14:46.075Z,94.75
2022-12-19T16:17:17.976Z,94.37
2022-12-19T16:19:47.676Z,94.06
2022-12-19T16:22:21.088Z,93.67
2022-12-19T16:24:51.072Z,93.93
2022-12-19T16:27:24.305Z,94.14
2022-12-19T16:29:55.076Z,94.91
2022-12-19T16:32:25.708Z,94.79
2022-12-19T16:34:55.657Z,94.92
2022-12-19T16:37:30.251Z,94.68
2022-12-19T16:40:00.566Z,94.60
2022-12-19T16:42:29.442Z,94.50
2022-12-19T16:44:57.790Z,95.03
2022-12-19T16:47:26.122Z,94.00
2022-12-19T16:49:55.859Z,94.50
2022-12-19T16:52:27.713Z,94.70
2022-12-19T16:55:01.082Z,94.20
2022-12-19T16:57:36.688Z,94.03
2022-12-19T17:00:12.320Z,93.68
2022-12-19T17:02:48.027Z,93.70
2022-12-19T17:05:27.123Z,94.00
2022-12-19T17:07:59.470Z,93.32
2022-12-19T17:10:35.495Z,94.46
2022-12-19T17:13:09.959Z,94.45
2022-12-19T17:15:42.721Z,93.82
2022-12-19T17:18:17.295Z,93.82
2022-12-19T17:20:51.858Z,93.82
2022-12-19T17:23:22.797Z,94.39
2022-12-19T17:25:52.314Z,93.89
2022-12-19T17:28:20.529Z,94.06
2022-12-19T17:30:51.333Z,93.60
2022-12-19T17:33:20.386Z,93.41
2022-12-19T17:35:50.307Z,93.39
2022-12-19T17:38:19.569Z,93.79
2022-12-19T17:40:48.008Z,93.58
2022-12-19T17:43:16.269Z,93.68
2022-12-19T17:45:44.969Z,94.04
2022-12-19T17:48:20.760Z,93.49
2022-12-19T17:50:50.439Z,94.30
2022-12-19T17:53:18.772Z,93.61
2022-12-19T17:55:47.069Z,93.24
2022-12-19T17:58:15.769Z,92.96
2022-12-19T18:00:47.161Z,93.12
2022-12-19T18:03:22.126Z,92.79
2022-12-19T18:05:53.017Z,92.48
2022-12-19T18:08:26.383Z,93.13
2022-12-19T18:10:56.599Z,93.28
2022-12-19T18:13:25.352Z,93.32
2022-12-19T18:15:54.998Z,92.91
2022-12-19T18:18:27.858Z,92.92
2022-12-19T18:20:58.499Z,93.35
2022-12-19T18:23:26.762Z,93.43
2022-12-19T18:26:01.072Z,93.13
2022-12-19T18:28:30.487Z,93.93
2022-12-19T18:31:01.335Z,93.09
2022-12-19T18:33:38.567Z,92.38
2022-12-19T18:36:09.317Z,92.66
2022-12-19T18:38:37.539Z,93.11
2022-12-19T18:41:06.121Z,92.61
2022-12-19T18:43:34.507Z,92.31
2022-12-19T18:46:02.931Z,93.03
2022-12-19T18:48:34.241Z,92.22
2022-12-19T18:51:03.766Z,92.65
2022-12-19T18:53:36.357Z,92.99
2022-12-19T18:56:06.178Z,93.12
2022-12-19T18:58:36.851Z,93.12
2022-12-19T19:01:07.102Z,92.37
2022-12-19T19:03:38.066Z,93.19
2022-12-19T19:06:08.263Z,92.68
2022-12-19T19:08:38.644Z,92.26
2022-12-19T19:11:07.106Z,92.82
2022-12-19T19:13:35.304Z,92.14
2022-12-19T19:16:05.895Z,92.48
2022-12-19T19:18:37.231Z,91.90
2022-12-19T19:21:06.807Z,92.03
2022-12-19T19:23:39.220Z,91.69
2022-12-19T19:26:07.641Z,91.60
2022-12-19T19:28:39.497Z,91.73
2022-12-19T19:31:10.162Z,91.67
2022-12-19T19:33:41.402Z,91.63
2022-12-19T19:36:13.723Z,91.39
2022-12-19T19:38:45.102Z,91.32
2022-12-19T19:41:13.630Z,91.45
2022-12-19T19:43:41.815Z,91.55
2022-12-19T19:46:10.118Z,91.89
2022-12-19T19:48:38.589Z,91.90
2022-12-19T19:51:07.136Z,91.79
2022-12-19T19:53:36.242Z,91.43
2022-12-19T19:56:06.413Z,91.38
2022-12-19T19:58:34.659Z,91.34
2022-12-19T20:01:09.324Z,91.60
2022-12-19T20:03:37.930Z,91.82
2022-12-19T20:06:06.685Z,92.03
2022-12-19T20:08:39.782Z,92.08
2022-12-19T20:11:10.944Z,92.16
2022-12-19T20:13:39.391Z,92.09
2022-12-19T20:16:09.403Z,91.90
2022-12-19T20:18:38.474Z,91.91
2022-12-19T20:21:12.703Z,91.76
2022-12-19T20:23:42.650Z,92.09
2022-12-19T20:26:13.049Z,92.29
2022-12-19T20:28:48.512Z,91.35
2022-12-19T20:31:19.964Z,91.77
2022-12-19T20:33:48.964Z,91.66
2022-12-19T20:36:17.661Z,91.71
2022-12-19T20:38:46.118Z,91.47
2022-12-19T20:41:15.881Z,91.21
2022-12-19T20:43:44.192Z,91.44
2022-12-19T20:46:14.192Z,91.17
2022-12-19T20:48:42.915Z,91.58
2022-12-19T20:51:11.216Z,91.19
2022-12-19T20:53:41.564Z,91.19
2022-12-19T20:56:12.273Z,90.97
2022-12-19T20:58:41.935Z,91.83
2022-12-19T21:01:15.520Z,91.95
2022-12-19T21:03:45.666Z,91.83
2022-12-19T21:06:18.189Z,90.97
2022-12-19T21:08:46.661Z,91.79
2022-12-19T21:11:15.724Z,90.65
2022-12-19T21:13:45.801Z,91.73
2022-12-19T21:16:15.655Z,91.04
2022-12-19T21:18:44.987Z,91.44
2022-12-19T21:21:15.617Z,92.25
2022-12-19T21:23:44.217Z,92.38
2022-12-19T21:26:12.709Z,91.59
2022-12-19T21:28:41.957Z,91.97
2022-12-19T21:31:21.770Z,91.74
2022-12-19T21:33:51.622Z,91.32
2022-12-19T21:36:22.542Z,91.88
2022-12-19T21:38:53.466Z,91.79
2022-12-19T21:41:21.775Z,91.56
2022-12-19T21:43:53.730Z,91.94
2022-12-19T21:46:25.330Z,92.88
2022-12-19T21:48:55.057Z,93.13
2022-12-19T21:51:25.153Z,92.34
2022-12-19T21:53:55.510Z,92.63
2022-12-19T21:56:25.611Z,92.27
2022-12-19T21:58:55.260Z,91.83
2022-12-19T22:01:25.535Z,92.33
2022-12-19T22:03:55.675Z,92.61
2022-12-19T22:06:52.429Z,92.55
2022-12-19T22:09:22.719Z,92.37
2022-12-19T22:11:51.168Z,92.43
2022-12-19T22:14:19.465Z,92.45
2022-12-19T22:16:49.317Z,92.61
2022-12-19T22:19:19.218Z,92.23
2022-12-19T22:21:48.222Z,92.17
2022-12-19T22:24:17.223Z,92.89
2022-12-19T22:26:45.421Z,92.55
2022-12-19T22:29:16.143Z,92.31
2022-12-19T22:31:45.008Z,92.92
2022-12-19T22:34:17.843Z,92.84
2022-12-19T22:36:46.747Z,93.09
2022-12-19T22:39:16.155Z,93.47
2022-12-19T22:41:44.756Z,93.35
2022-12-19T22:44:17.538Z,93.35
2022-12-19T22:46:46.121Z,93.56
2022-12-19T22:49:15.919Z,93.53
2022-12-19T22:51:44.344Z,93.99
2022-12-19T22:54:13.403Z,93.87
2022-12-19T22:56:42.082Z,93.25
2022-12-19T22:59:12.655Z,93.50
2022-12-19T23:01:42.746Z,93.56
2022-12-19T23:04:13.894Z,93.33
2022-12-19T23:06:45.477Z,93.36
2022-12-19T23:09:16.327Z,93.98
2022-12-19T23:11:46.427Z,93.42
2022-12-19T23:14:16.941Z,93.17
2022-12-19T23:16:45.608Z,93.31
2022-12-19T23:19:14.803Z,93.32
2022-12-19T23:21:44.557Z,93.39
2022-12-19T23:24:12.861Z,93.93
2022-12-19T23:26:41.218Z,93.72
2022-12-19T23:29:10.555Z,93.32
2022-12-19T23:31:41.711Z,93.25
2022-12-19T23:34:10.759Z,93.39
2022-12-19T23:37:09.477Z,93.47
2022-12-19T23:39:29.707Z,93.73
2022-12-19T23:41:57.960Z,93.91
2022-12-19T23:44:26.423Z,92.74
2022-12-19T23:47:02.364Z,92.67
2022-12-19T23:49:31.563Z,92.96
2022-12-19T23:51:59.823Z,93.57
2022-12-19T23:54:29.381Z,93.38
2022-12-19T23:56:57.566Z,93.89
2022-12-19T23:59:25.897Z,94.02
